Time;durP1;ratioP1;P1;durP2;ratioP2;P2;SDS_P1;SDS_P2;PMS_P1;PMS_P2;Temp;Humidity;BMP_temperature;BMP_pressure;BME280_temperature;BME280_humidity;BME280_pressure;Samples;Min_cycle;Max_cycle;Signal;HPM_P1;HPM_P2
2021/04/01 00:06:32;;;;;;;13.82;6.18;;;13.60;99.90;;;;;;6748777;88;20213;-76
2021/04/01 00:16:33;;;;;;;13.70;5.97;;;13.50;99.90;;;;;;6751654;88;20713;-75
2021/04/01 00:26:58;;;;;;;11.65;5.40;;;13.50;99.90;;;;;;6752111;88;20179;-75
2021/04/01 00:36:58;;;;;;;12.45;4.57;;;13.40;99.90;;;;;;6749181;88;20207;-76
2021/04/01 00:46:59;;;;;;;9.68;4.65;;;13.30;99.90;;;;;;6754744;88;20255;-75
2021/04/01 00:57:00;;;;;;;10.98;5.20;;;13.00;99.90;;;;;;6753789;88;20217;-76
2021/04/01 01:07:01;;;;;;;13.32;4.68;;;12.90;99.90;;;;;;6753712;88;20963;-74
2021/04/01 01:17:03;;;;;;;10.70;5.15;;;12.70;99.90;;;;;;6753558;88;20217;-75
2021/04/01 01:27:05;;;;;;;9.52;4.37;;;12.70;99.90;;;;;;6756006;88;20176;-75
2021/04/01 01:37:05;;;;;;;9.05;5.25;;;12.60;99.90;;;;;;6755900;88;20195;-76
2021/04/01 01:47:06;;;;;;;11.23;4.80;;;12.60;99.90;;;;;;6755962;88;20271;-76
2021/04/01 01:57:06;;;;;;;11.60;4.95;;;12.50;99.90;;;;;;6756566;88;20213;-76
2021/04/01 02:07:07;;;;;;;8.63;4.30;;;12.30;99.90;;;;;;6737655;88;20313;-76
2021/04/01 02:17:17;;;;;;;11.70;4.55;;;12.30;99.90;;;;;;6725027;77;20190;-75
2021/04/01 02:27:18;;;;;;;9.45;4.30;;;12.10;99.90;;;;;;6694807;88;20192;-76
2021/04/01 02:37:19;;;;;;;7.45;3.87;;;12.00;99.90;;;;;;6687420;88;20821;-76
2021/04/01 02:47:19;;;;;;;8.50;4.18;;;11.90;99.90;;;;;;6679393;88;20191;-76
2021/04/01 02:57:20;;;;;;;7.05;4.00;;;12.00;99.90;;;;;;6688224;88;20216;-76
2021/04/01 03:07:21;;;;;;;9.87;4.27;;;12.00;99.90;;;;;;6683902;88;20252;-75
2021/04/01 03:17:22;;;;;;;8.73;4.37;;;11.80;99.90;;;;;;6714932;87;20565;-75
2021/04/01 03:27:23;;;;;;;8.52;4.10;;;11.90;99.90;;;;;;6762988;87;20655;-76
2021/04/01 03:37:24;;;;;;;11.90;4.30;;;11.80;99.90;;;;;;6763546;87;20248;-76
2021/04/01 03:47:25;;;;;;;11.40;4.97;;;11.90;99.90;;;;;;6764262;87;20212;-75
2021/04/01 03:57:25;;;;;;;12.13;4.35;;;11.70;99.90;;;;;;6775181;87;20536;-76
2021/04/01 04:07:37;;;;;;;9.33;4.67;;;11.50;99.90;;;;;;6778019;87;20704;-76
2021/04/01 04:17:38;;;;;;;10.27;4.62;;;11.30;99.90;;;;;;6791219;87;20200;-76
2021/04/01 04:37:49;;;;;;;9.15;4.70;;;11.50;99.90;;;;;;6770630;87;20348;-76
2021/04/01 04:47:49;;;;;;;10.10;4.95;;;11.20;99.90;;;;;;6771425;87;20604;-76
2021/04/01 04:58:14;;;;;;;11.45;5.50;;;11.20;99.90;;;;;;6769375;87;20210;-76
2021/04/01 05:08:15;;;;;;;8.27;4.37;;;11.10;99.90;;;;;;6768000;87;21072;-76
2021/04/01 05:18:29;;;;;;;13.05;5.60;;;11.20;99.90;;;;;;6767672;87;20344;-75
2021/04/01 05:28:34;;;;;;;9.68;5.15;;;11.40;99.90;;;;;;6765495;87;20205;-76
2021/04/01 05:38:35;;;;;;;13.18;5.65;;;11.70;99.90;;;;;;6765390;87;20201;-75
2021/04/01 05:48:49;;;;;;;14.95;5.18;;;11.70;99.90;;;;;;6764433;87;20207;-76
2021/04/01 06:09:25;;;;;;;9.77;5.30;;;11.80;99.90;;;;;;6754448;87;20184;-75
2021/04/01 06:19:32;;;;;;;15.07;6.90;;;11.80;99.90;;;;;;6770325;87;20235;-76
2021/04/01 06:29:37;;;;;;;14.95;6.15;;;11.80;99.90;;;;;;6767795;87;20294;-76
2021/04/01 06:39:38;;;;;;;13.13;5.80;;;11.90;99.90;;;;;;6766765;87;20191;-77
2021/04/01 06:49:56;;;;;;;13.65;7.00;;;12.00;99.90;;;;;;6766815;87;20674;-77
2021/04/01 07:00:11;;;;;;;13.27;6.30;;;12.40;99.90;;;;;;6766853;87;20630;-77
2021/04/01 07:10:23;;;;;;;12.83;6.07;;;12.90;99.90;;;;;;6765959;87;20709;-77
2021/04/01 08:11:53;;;;;;;19.60;9.52;;;16.80;99.90;;;;;;6764554;87;20179;-76
2021/04/01 08:21:57;;;;;;;18.55;7.62;;;17.30;98.80;;;;;;6747564;76;20712;-77
2021/04/01 08:42:37;;;;;;;21.52;8.73;;;19.10;96.80;;;;;;6742027;88;20766;-77
2021/04/01 08:52:48;;;;;;;22.42;11.43;;;19.90;94.00;;;;;;6746301;88;20644;-77
2021/04/01 09:02:51;;;;;;;40.63;15.48;;;20.70;91.50;;;;;;6744545;88;20181;-77
2021/04/01 09:23:12;;;;;;;46.25;20.98;;;22.60;81.40;;;;;;6749535;88;20197;-78
2021/04/01 09:33:25;;;;;;;45.47;21.30;;;22.60;79.50;;;;;;6738671;88;20268;-77
2021/04/01 09:43:26;;;;;;;53.47;25.40;;;23.30;77.70;;;;;;6739610;87;20211;-78
2021/04/01 09:53:28;;;;;;;59.05;23.58;;;24.80;72.50;;;;;;6736363;87;20283;-77
2021/04/01 10:03:49;;;;;;;52.25;21.52;;;24.40;67.60;;;;;;6736164;88;20192;-77
2021/04/01 10:14:03;;;;;;;56.88;23.55;;;24.10;64.70;;;;;;6735695;88;20206;-77
2021/04/01 10:24:07;;;;;;;56.60;22.83;;;24.10;63.80;;;;;;6736464;88;20337;-77
2021/04/01 10:34:26;;;;;;;54.10;20.62;;;25.50;62.40;;;;;;6732189;88;20239;-77
2021/04/01 10:44:27;;;;;;;42.08;18.48;;;25.80;59.60;;;;;;6732242;88;20193;-77
2021/04/01 10:54:36;;;;;;;43.80;16.95;;;25.80;59.60;;;;;;6732147;88;20228;-77
2021/04/01 11:04:40;;;;;;;48.55;18.23;;;25.30;58.80;;;;;;6728643;88;20205;-77
2021/04/01 11:14:53;;;;;;;;;;;24.80;60.70;;;;;;6731816;88;20176;-76
2021/04/01 11:24:54;;;;;;;39.22;15.52;;;26.10;58.80;;;;;;6731252;88;20070;-77
2021/04/01 11:35:01;;;;;;;39.67;14.52;;;26.50;57.30;;;;;;6727116;88;20669;-77
2021/04/01 11:45:06;;;;;;;38.22;15.90;;;26.80;58.10;;;;;;6735272;88;20234;-76
2021/04/01 11:55:11;;;;;;;36.75;15.00;;;27.50;57.10;;;;;;6734156;88;20189;-76
2021/04/01 12:05:13;;;;;;;34.95;14.38;;;27.40;56.30;;;;;;6731053;88;20312;-76
2021/04/01 12:15:15;;;;;;;27.33;11.50;;;27.10;56.60;;;;;;6731232;88;20308;-76
2021/04/01 12:25:18;;;;;;;24.10;9.23;;;26.40;55.60;;;;;;6728915;88;20676;-76
2021/04/01 12:35:20;;;;;;;26.95;9.15;;;27.10;54.80;;;;;;6733202;88;20192;-76
2021/04/01 12:45:25;;;;;;;21.95;8.75;;;27.20;55.00;;;;;;6726305;88;20208;-76
2021/04/01 12:55:44;;;;;;;29.85;9.60;;;27.00;55.60;;;;;;6733517;88;20239;-77
2021/04/01 13:05:49;;;;;;;27.58;10.15;;;27.50;55.10;;;;;;6721965;88;20198;-76
2021/04/01 13:15:49;;;;;;;29.98;11.12;;;27.50;53.90;;;;;;6738153;87;20181;-78
2021/04/01 13:25:54;;;;;;;30.08;11.38;;;27.20;54.90;;;;;;6736603;88;20260;-76
2021/04/01 13:36:01;;;;;;;32.45;12.20;;;27.10;55.00;;;;;;6732537;87;20205;-77
2021/04/01 13:46:02;;;;;;;42.53;16.45;;;26.60;55.40;;;;;;6725337;88;20656;-76
2021/04/01 13:56:16;;;;;;;40.80;17.45;;;27.00;55.90;;;;;;6727746;88;20847;-77
2021/04/01 14:16:42;;;;;;;53.53;21.80;;;25.80;59.20;;;;;;6732128;76;20217;-75
2021/04/01 14:26:47;;;;;;;52.10;19.60;;;25.80;59.80;;;;;;6730266;88;20190;-75
2021/04/01 14:36:53;;;;;;;42.22;16.98;;;26.10;57.60;;;;;;6730812;88;20617;-75
2021/04/01 14:46:54;;;;;;;43.13;18.73;;;26.30;56.80;;;;;;6727200;88;20678;-75
2021/04/01 14:57:07;;;;;;;46.90;22.37;;;25.00;58.10;;;;;;6724292;88;20221;-75
2021/04/01 15:07:09;;;;;;;57.63;26.77;;;24.50;60.50;;;;;;6740172;88;20283;-74
2021/04/01 15:17:12;;;;;;;58.20;28.27;;;23.60;63.40;;;;;;6733983;88;20178;-74
2021/04/01 15:27:13;;;;;;;64.13;30.50;;;23.20;64.20;;;;;;6732528;88;20773;-74
2021/04/01 15:37:14;;;;;;;64.85;30.85;;;22.80;65.40;;;;;;6723452;88;20306;-75
2021/04/01 15:47:16;;;;;;;67.30;32.08;;;22.30;67.00;;;;;;6732376;88;21075;-75
2021/04/01 15:57:16;;;;;;;60.03;29.58;;;22.00;67.50;;;;;;6725794;88;20192;-75
2021/04/01 16:07:17;;;;;;;49.95;22.73;;;21.80;68.40;;;;;;6731772;88;20206;-76
2021/04/01 16:17:18;;;;;;;30.70;17.08;;;21.70;66.50;;;;;;6737822;88;20690;-74
2021/04/01 16:27:18;;;;;;;22.52;11.23;;;21.40;66.60;;;;;;6737056;88;20186;-76
2021/04/01 16:37:20;;;;;;;19.10;9.07;;;21.10;65.90;;;;;;6734288;88;20227;-78
2021/04/01 16:47:20;;;;;;;16.52;7.75;;;20.60;66.60;;;;;;6729410;88;20256;-76
2021/04/01 16:57:23;;;;;;;15.00;6.72;;;20.50;67.20;;;;;;6733054;88;20612;-78
2021/04/01 17:07:24;;;;;;;12.10;5.20;;;20.10;69.00;;;;;;6732616;88;20203;-76
2021/04/01 17:17:24;;;;;;;14.02;4.12;;;19.60;70.70;;;;;;6734305;88;20237;-77
2021/04/01 17:27:25;;;;;;;11.15;3.60;;;19.20;71.70;;;;;;6726059;88;20347;-78
2021/04/01 17:37:26;;;;;;;10.80;3.80;;;18.70;73.70;;;;;;6725894;88;20704;-77
2021/04/01 17:47:27;;;;;;;12.25;4.25;;;18.40;76.10;;;;;;6731754;88;20208;-77
2021/04/01 17:57:29;;;;;;;9.07;3.00;;;17.80;78.50;;;;;;6730031;88;20393;-78
2021/04/01 18:28:21;;;;;;;11.23;3.33;;;16.40;90.80;;;;;;6734126;88;20161;-77
2021/04/01 18:39:10;;;;;;;6.15;2.80;;;16.00;92.70;;;;;;6732840;88;20664;-74
2021/04/01 18:48:48;;;;;;;6.40;2.40;;;15.70;92.60;;;;;;6727084;88;20185;-76
2021/04/01 18:59:01;;;;;;;7.37;2.35;;;15.40;91.60;;;;;;6722364;88;20207;-74
2021/04/01 19:09:10;;;;;;;6.30;2.35;;;15.30;91.10;;;;;;6731024;88;20317;-75
2021/04/01 19:29:24;;;;;;;7.80;2.08;;;14.80;90.80;;;;;;6739675;88;20189;-76
2021/04/01 19:39:25;;;;;;;5.40;2.22;;;14.40;90.10;;;;;;6738758;88;20229;-76
2021/04/01 19:49:30;;;;;;;5.82;1.90;;;14.20;90.30;;;;;;6731942;88;20440;-74
2021/04/01 19:59:32;;;;;;;9.77;1.77;;;13.90;86.10;;;;;;6724240;88;20702;-74
2021/04/01 20:09:34;;;;;;;9.10;2.17;;;13.60;82.10;;;;;;6733691;88;20201;-76
2021/04/01 20:19:35;;;;;;;7.62;2.12;;;13.40;80.90;;;;;;6737598;88;20215;-75
2021/04/01 20:29:36;;;;;;;10.77;2.28;;;13.20;82.20;;;;;;6731227;88;20690;-75
2021/04/01 20:39:37;;;;;;;7.43;1.90;;;12.90;84.40;;;;;;6734012;88;20322;-77
2021/04/01 20:49:38;;;;;;;9.77;2.53;;;12.70;87.20;;;;;;6734107;88;20601;-76
2021/04/01 20:59:38;;;;;;;11.65;2.25;;;12.60;90.20;;;;;;6733812;88;20239;-76
2021/04/01 21:09:39;;;;;;;8.95;2.00;;;12.30;90.00;;;;;;6745301;88;20276;-76
2021/04/01 21:19:39;;;;;;;7.97;2.20;;;12.00;89.40;;;;;;6749703;88;20200;-77
2021/04/01 21:29:40;;;;;;;8.73;2.22;;;11.70;85.70;;;;;;6740079;88;20200;-77
2021/04/01 21:39:40;;;;;;;11.02;2.00;;;11.60;85.90;;;;;;6739046;88;20217;-76
2021/04/01 21:49:41;;;;;;;9.27;2.67;;;11.30;88.20;;;;;;6738054;88;20223;-77
2021/04/01 21:59:42;;;;;;;9.23;2.53;;;11.10;91.00;;;;;;6737074;88;20201;-77
2021/04/01 22:09:43;;;;;;;9.63;2.50;;;10.90;91.70;;;;;;6738301;88;20649;-77
2021/04/01 22:19:43;;;;;;;8.32;2.35;;;10.70;93.10;;;;;;6738044;88;20197;-74
2021/04/01 22:29:44;;;;;;;10.50;2.80;;;10.40;94.30;;;;;;6738792;88;20346;-76
2021/04/01 22:39:44;;;;;;;6.93;2.62;;;10.00;96.90;;;;;;6739108;88;20647;-76
2021/04/01 22:49:45;;;;;;;8.45;2.90;;;9.90;98.20;;;;;;6733627;88;20182;-77
2021/04/01 22:59:46;;;;;;;11.43;3.12;;;9.70;99.90;;;;;;6740107;88;20308;-77
2021/04/01 23:09:46;;;;;;;9.93;3.05;;;9.40;99.90;;;;;;6735499;88;21046;-75
2021/04/01 23:19:47;;;;;;;10.38;3.05;;;9.30;99.90;;;;;;6738944;88;20272;-76
2021/04/01 23:29:47;;;;;;;6.20;3.10;;;9.20;99.90;;;;;;6735382;88;20289;-75
2021/04/01 23:39:48;;;;;;;7.00;3.20;;;9.00;99.90;;;;;;6745951;88;20232;-76
2021/04/01 23:49:49;;;;;;;8.27;3.35;;;8.90;99.90;;;;;;6747674;88;20259;-75
2021/04/01 23:59:50;;;;;;;8.65;4.20;;;8.70;99.90;;;;;;6738299;88;20180;-76
